Time;durP1;ratioP1;P1;durP2;ratioP2;P2;SDS_P1;SDS_P2;PMS_P1;PMS_P2;Temp;Humidity;BMP_temperature;BMP_pressure;BME280_temperature;BME280_humidity;BME280_pressure;Samples;Min_cycle;Max_cycle;Signal;HPM_P1;HPM_P2
2023/05/30 00:02:05;;;;;;;12.73;11.98;;;;;;;;;;5043560;28;20110;-62
2023/05/30 00:04:31;;;;;;;12.77;11.88;;;;;;;;;;5039154;28;20029;-62
2023/05/30 00:06:56;;;;;;;13.80;12.85;;;;;;;;;;5035418;28;20542;-62
2023/05/30 00:09:22;;;;;;;10.73;10.07;;;;;;;;;;5037391;28;20828;-50
2023/05/30 00:11:48;;;;;;;12.55;11.77;;;;;;;;;;5037330;28;20533;-62
2023/05/30 00:14:20;;;;;;;11.95;11.15;;;;;;;;;;5035729;28;20063;-62
2023/05/30 00:16:46;;;;;;;11.27;10.57;;;;;;;;;;5036516;28;20025;-50
2023/05/30 00:19:11;;;;;;;11.70;10.80;;;;;;;;;;5036427;28;20391;-62
2023/05/30 00:21:37;;;;;;;11.63;10.93;;;;;;;;;;5034426;28;20119;-51
2023/05/30 00:24:04;;;;;;;10.98;10.10;;;;;;;;;;5036528;28;20045;-61
2023/05/30 00:26:29;;;;;;;11.23;10.52;;;;;;;;;;5033949;28;20155;-62
2023/05/30 00:28:55;;;;;;;11.38;10.68;;;;;;;;;;5032230;28;20529;-51
2023/05/30 00:31:20;;;;;;;11.57;10.88;;;;;;;;;;5034380;28;20044;-62
2023/05/30 00:33:45;;;;;;;13.05;11.90;;;;;;;;;;5035250;28;20040;-62
2023/05/30 00:36:11;;;;;;;12.98;11.85;;;;;;;;;;5032081;28;20423;-53
2023/05/30 00:38:36;;;;;;;11.65;10.77;;;;;;;;;;5033395;28;20090;-62
2023/05/30 00:41:02;;;;;;;12.30;11.55;;;;;;;;;;5034995;28;20036;-62
2023/05/30 00:43:27;;;;;;;11.75;11.05;;;;;;;;;;5033120;28;20607;-52
2023/05/30 00:45:54;;;;;;;12.50;11.70;;;;;;;;;;5034693;28;20534;-62
2023/05/30 00:48:21;;;;;;;12.88;12.07;;;;;;;;;;5033001;28;20543;-62
2023/05/30 00:50:47;;;;;;;13.13;12.32;;;;;;;;;;5034349;28;20029;-53
2023/05/30 00:53:14;;;;;;;12.23;11.52;;;;;;;;;;5037381;28;20482;-62
2023/05/30 00:55:40;;;;;;;13.95;12.77;;;;;;;;;;5036350;28;20035;-52
2023/05/30 00:58:06;;;;;;;11.88;11.18;;;;;;;;;;5033686;28;20037;-52
2023/05/30 01:00:37;;;;;;;13.00;11.90;;;;;;;;;;5036678;28;20533;-52
2023/05/30 01:03:03;;;;;;;14.52;13.63;;;;;;;;;;5034848;28;20508;-62
2023/05/30 01:05:28;;;;;;;14.02;13.02;;;;;;;;;;5033051;28;20048;-62
2023/05/30 01:07:54;;;;;;;13.35;12.45;;;;;;;;;;5035777;28;20033;-52
2023/05/30 01:10:20;;;;;;;12.48;11.77;;;;;;;;;;5035553;28;20538;-62
2023/05/30 01:12:52;;;;;;;12.65;11.95;;;;;;;;;;5033629;28;20837;-61
2023/05/30 01:15:26;;;;;;;12.43;11.63;;;;;;;;;;5035626;28;20061;-62
2023/05/30 01:18:19;;;;;;;13.52;12.73;;;;;;;;;;5035271;28;20140;-53
2023/05/30 01:20:49;;;;;;;13.55;12.75;;;;;;;;;;5034352;28;20504;-50
2023/05/30 01:23:37;;;;;;;12.80;12.00;;;;;;;;;;5033546;28;20037;-62
2023/05/30 01:26:24;;;;;;;13.05;12.15;;;;;;;;;;5035230;28;20049;-53
2023/05/30 01:28:51;;;;;;;14.50;13.65;;;;;;;;;;5033844;28;20037;-51
2023/05/30 01:31:18;;;;;;;12.93;12.20;;;;;;;;;;5032986;28;20037;-62
2023/05/30 01:33:46;;;;;;;13.73;12.93;;;;;;;;;;5034973;28;20026;-53
2023/05/30 01:36:12;;;;;;;14.45;13.55;;;;;;;;;;5033200;28;20187;-62
2023/05/30 01:38:37;;;;;;;14.73;12.88;;;;;;;;;;5031942;28;20112;-51
2023/05/30 01:41:07;;;;;;;12.88;12.07;;;;;;;;;;5036952;28;20033;-53
2023/05/30 01:43:53;;;;;;;12.50;11.80;;;;;;;;;;5032960;28;20044;-53
2023/05/30 01:46:32;;;;;;;13.38;12.48;;;;;;;;;;5035286;28;20460;-62
2023/05/30 01:49:11;;;;;;;12.73;11.93;;;;;;;;;;5033192;28;20724;-63
2023/05/30 01:51:53;;;;;;;14.85;13.95;;;;;;;;;;5036062;28;20107;-62
2023/05/30 01:54:20;;;;;;;13.55;12.63;;;;;;;;;;5033313;28;20040;-62
2023/05/30 01:56:53;;;;;;;12.60;11.80;;;;;;;;;;5035056;28;20106;-62
2023/05/30 01:59:20;;;;;;;12.57;11.77;;;;;;;;;;5035856;28;20037;-53
2023/05/30 02:01:47;;;;;;;13.73;12.88;;;;;;;;;;5035095;28;20033;-63
2023/05/30 02:04:12;;;;;;;14.48;13.57;;;;;;;;;;5034643;28;20060;-63
2023/05/30 02:06:38;;;;;;;14.30;13.40;;;;;;;;;;5037237;28;20523;-63
2023/05/30 02:09:06;;;;;;;13.30;12.50;;;;;;;;;;5034454;28;20039;-63
2023/05/30 02:11:31;;;;;;;13.68;12.88;;;;;;;;;;5034770;28;20185;-48
2023/05/30 02:14:00;;;;;;;23.33;13.85;;;;;;;;;;5034182;28;20053;-62
2023/05/30 02:16:26;;;;;;;14.45;13.65;;;;;;;;;;5036560;28;20041;-51
2023/05/30 02:18:52;;;;;;;15.00;14.10;;;;;;;;;;5033240;28;20037;-52
2023/05/30 02:21:19;;;;;;;13.95;13.15;;;;;;;;;;5033246;28;20033;-51
2023/05/30 02:23:44;;;;;;;15.93;15.02;;;;;;;;;;5036240;28;20080;-62
2023/05/30 02:26:09;;;;;;;13.43;12.63;;;;;;;;;;5033488;28;20041;-62
2023/05/30 02:28:35;;;;;;;13.95;13.15;;;;;;;;;;5033660;28;20491;-62
2023/05/30 02:31:01;;;;;;;13.20;12.40;;;;;;;;;;5034102;28;20026;-49
2023/05/30 02:33:26;;;;;;;12.95;12.15;;;;;;;;;;5032377;28;20056;-62
2023/05/30 02:35:51;;;;;;;12.15;11.35;;;;;;;;;;5031054;28;20037;-62
2023/05/30 02:38:17;;;;;;;12.30;11.60;;;;;;;;;;5033650;28;20048;-61
2023/05/30 02:40:42;;;;;;;12.00;11.18;;;;;;;;;;5031895;28;20104;-61
2023/05/30 02:43:08;;;;;;;13.63;12.82;;;;;;;;;;5031636;28;20188;-62
2023/05/30 02:45:33;;;;;;;11.23;10.52;;;;;;;;;;5033005;28;20185;-61
2023/05/30 02:47:58;;;;;;;10.98;10.27;;;;;;;;;;5032599;28;20063;-61
2023/05/30 02:50:24;;;;;;;10.65;9.95;;;;;;;;;;5038387;28;20029;-51
2023/05/30 02:52:49;;;;;;;11.55;10.77;;;;;;;;;;5032651;28;20041;-52
2023/05/30 02:55:14;;;;;;;10.93;10.23;;;;;;;;;;5032869;28;20034;-61
2023/05/30 02:57:40;;;;;;;10.13;9.27;;;;;;;;;;5032496;28;20037;-52
2023/05/30 03:00:06;;;;;;;10.68;9.77;;;;;;;;;;5033491;28;20091;-50
2023/05/30 03:02:31;;;;;;;10.50;9.85;;;;;;;;;;5033369;28;20091;-61
2023/05/30 03:04:57;;;;;;;9.55;8.95;;;;;;;;;;5032681;28;20041;-61
2023/05/30 03:07:23;;;;;;;9.55;8.85;;;;;;;;;;5032070;28;20064;-61
2023/05/30 03:09:48;;;;;;;9.63;9.02;;;;;;;;;;5034857;28;20033;-61
2023/05/30 03:12:14;;;;;;;10.55;9.77;;;;;;;;;;5038193;28;20038;-52
2023/05/30 03:14:39;;;;;;;10.82;9.65;;;;;;;;;;5035542;28;20589;-61
2023/05/30 03:17:05;;;;;;;10.10;9.40;;;;;;;;;;5037421;28;20044;-61
2023/05/30 03:19:30;;;;;;;10.05;9.43;;;;;;;;;;5036353;28;20151;-61
2023/05/30 03:21:56;;;;;;;10.15;9.50;;;;;;;;;;5038822;28;20464;-61
2023/05/30 03:24:22;;;;;;;9.50;8.90;;;;;;;;;;5036078;28;20122;-61
2023/05/30 03:26:48;;;;;;;9.50;8.90;;;;;;;;;;5037704;28;20399;-61
2023/05/30 03:29:13;;;;;;;12.63;10.13;;;;;;;;;;5036373;28;20037;-51
2023/05/30 03:31:39;;;;;;;10.82;10.13;;;;;;;;;;5035601;28;20426;-62
2023/05/30 03:34:06;;;;;;;10.73;10.02;;;;;;;;;;5038228;28;20156;-61
2023/05/30 03:36:31;;;;;;;9.00;8.40;;;;;;;;;;5034851;28;20371;-62
2023/05/30 03:38:56;;;;;;;11.07;10.20;;;;;;;;;;5036029;28;20030;-62
2023/05/30 03:41:23;;;;;;;10.48;9.80;;;;;;;;;;5035729;28;20685;-50
2023/05/30 03:43:48;;;;;;;10.02;9.43;;;;;;;;;;5036676;28;20036;-62
2023/05/30 03:46:19;;;;;;;10.02;9.32;;;;;;;;;;5036872;28;20450;-61
2023/05/30 03:48:47;;;;;;;9.65;9.05;;;;;;;;;;5035977;28;20025;-61
2023/05/30 03:51:13;;;;;;;11.18;10.38;;;;;;;;;;5037466;28;20111;-62
2023/05/30 03:53:39;;;;;;;9.40;8.80;;;;;;;;;;5034705;28;20133;-53
2023/05/30 03:56:05;;;;;;;10.43;9.63;;;;;;;;;;5033710;28;20068;-61
2023/05/30 03:58:31;;;;;;;10.90;10.20;;;;;;;;;;5033052;28;20072;-53
2023/05/30 04:00:57;;;;;;;11.13;10.43;;;;;;;;;;5034303;28;20053;-50
2023/05/30 04:03:23;;;;;;;10.43;9.80;;;;;;;;;;5035020;28;20363;-48
2023/05/30 04:05:48;;;;;;;13.13;10.55;;;;;;;;;;5037494;28;20029;-50
2023/05/30 04:08:14;;;;;;;23.13;10.18;;;;;;;;;;5035322;28;20095;-50
2023/05/30 04:10:40;;;;;;;12.05;11.13;;;;;;;;;;5035216;28;20044;-61
2023/05/30 04:13:06;;;;;;;10.20;9.60;;;;;;;;;;5036434;28;20037;-61
2023/05/30 04:15:32;;;;;;;10.80;10.10;;;;;;;;;;5036512;28;20511;-50
2023/05/30 04:17:58;;;;;;;15.55;10.55;;;;;;;;;;5034779;28;20125;-49
2023/05/30 04:20:24;;;;;;;10.57;9.80;;;;;;;;;;5034839;28;20037;-61
2023/05/30 04:22:50;;;;;;;10.82;10.05;;;;;;;;;;5035400;28;20041;-61
2023/05/30 04:25:17;;;;;;;10.50;9.45;;;;;;;;;;5036554;28;20063;-48
2023/05/30 04:27:43;;;;;;;9.45;8.85;;;;;;;;;;5034091;28;20482;-50
2023/05/30 04:30:10;;;;;;;9.63;9.02;;;;;;;;;;5035311;28;20060;-49
2023/05/30 04:32:35;;;;;;;12.73;11.50;;;;;;;;;;5033408;28;20069;-52
2023/05/30 04:35:02;;;;;;;10.40;9.80;;;;;;;;;;5036231;28;20111;-61
2023/05/30 04:37:27;;;;;;;10.93;10.23;;;;;;;;;;5031920;28;20060;-61
2023/05/30 04:39:55;;;;;;;10.07;9.48;;;;;;;;;;5035244;28;20422;-49
2023/05/30 04:42:24;;;;;;;21.77;10.90;;;;;;;;;;5036086;28;20048;-61
2023/05/30 04:44:49;;;;;;;10.40;9.80;;;;;;;;;;5036485;28;20024;-49
2023/05/30 04:47:15;;;;;;;13.10;12.15;;;;;;;;;;5038019;28;20041;-61
2023/05/30 04:49:41;;;;;;;14.82;9.80;;;;;;;;;;5035944;28;20106;-61
2023/05/30 04:52:07;;;;;;;10.00;9.40;;;;;;;;;;5034049;28;20029;-61
2023/05/30 04:54:32;;;;;;;10.15;9.55;;;;;;;;;;5032521;28;20134;-48
2023/05/30 04:56:58;;;;;;;9.88;9.27;;;;;;;;;;5033907;28;20537;-61
2023/05/30 04:59:23;;;;;;;10.02;9.32;;;;;;;;;;5036719;28;20375;-60
2023/05/30 05:01:49;;;;;;;9.65;9.05;;;;;;;;;;5034962;28;20040;-53
2023/05/30 05:04:14;;;;;;;10.05;9.45;;;;;;;;;;5036287;28;20447;-60
2023/05/30 05:06:40;;;;;;;9.15;8.55;;;;;;;;;;5034584;28;20036;-61
2023/05/30 05:09:05;;;;;;;12.35;11.10;;;;;;;;;;5034487;28;20029;-64
2023/05/30 05:11:30;;;;;;;9.88;9.27;;;;;;;;;;5034010;28;20052;-62
2023/05/30 05:13:56;;;;;;;12.95;10.50;;;;;;;;;;5035175;28;20033;-62
2023/05/30 05:16:21;;;;;;;10.60;9.65;;;;;;;;;;5031045;28;20040;-63
2023/05/30 05:18:46;;;;;;;10.50;9.65;;;;;;;;;;5035200;28;20278;-61
2023/05/30 05:21:12;;;;;;;10.93;10.23;;;;;;;;;;5037700;28;20565;-61
2023/05/30 05:23:37;;;;;;;9.60;9.00;;;;;;;;;;5033359;28;20038;-61
2023/05/30 05:26:03;;;;;;;10.23;9.48;;;;;;;;;;5033137;28;20056;-50
2023/05/30 05:28:28;;;;;;;10.55;9.70;;;;;;;;;;5033673;28;20041;-52
2023/05/30 05:30:54;;;;;;;11.18;10.38;;;;;;;;;;5035628;28;20037;-62
2023/05/30 05:33:20;;;;;;;10.85;10.20;;;;;;;;;;5035203;28;20141;-62
2023/05/30 05:35:46;;;;;;;10.88;10.18;;;;;;;;;;5033159;28;20033;-62
2023/05/30 05:38:12;;;;;;;12.48;11.68;;;;;;;;;;5033555;28;20055;-52
2023/05/30 05:40:37;;;;;;;14.05;13.00;;;;;;;;;;5034340;28;20136;-61
2023/05/30 05:43:03;;;;;;;16.15;12.02;;;;;;;;;;5036535;28;20183;-61
2023/05/30 05:45:28;;;;;;;11.00;10.30;;;;;;;;;;5031968;28;20060;-61
2023/05/30 05:47:53;;;;;;;10.02;9.05;;;;;;;;;;5035509;28;20033;-61
2023/05/30 05:50:19;;;;;;;12.60;11.70;;;;;;;;;;5034471;28;20033;-62
2023/05/30 05:52:44;;;;;;;11.45;10.65;;;;;;;;;;5033063;28;20059;-53
2023/05/30 05:55:10;;;;;;;11.82;11.10;;;;;;;;;;5037037;28;20517;-51
2023/05/30 05:57:35;;;;;;;12.00;11.05;;;;;;;;;;5034262;28;20042;-52
2023/05/30 06:00:01;;;;;;;13.40;12.45;;;;;;;;;;5033155;28;20037;-52
2023/05/30 06:02:26;;;;;;;11.30;10.60;;;;;;;;;;5032788;28;20086;-49
2023/05/30 06:04:52;;;;;;;11.13;10.43;;;;;;;;;;5032804;28;20169;-62
2023/05/30 06:07:17;;;;;;;12.57;11.68;;;;;;;;;;5032861;28;20040;-63
2023/05/30 06:09:42;;;;;;;12.15;11.23;;;;;;;;;;5033841;28;20075;-49
2023/05/30 06:12:08;;;;;;;13.02;12.20;;;;;;;;;;5032318;28;20033;-48
2023/05/30 06:14:33;;;;;;;12.05;11.35;;;;;;;;;;5032190;28;20516;-50
2023/05/30 06:16:59;;;;;;;13.68;12.88;;;;;;;;;;5033295;28;20660;-62
2023/05/30 06:19:24;;;;;;;14.75;13.80;;;;;;;;;;5033189;28;20115;-62
2023/05/30 06:21:50;;;;;;;14.25;13.35;;;;;;;;;;5032221;28;20025;-62
2023/05/30 06:24:15;;;;;;;15.98;14.88;;;;;;;;;;5034453;28;20029;-62
2023/05/30 06:26:40;;;;;;;14.43;13.63;;;;;;;;;;5033267;28;20116;-62
2023/05/30 06:29:06;;;;;;;18.08;16.88;;;;;;;;;;5031373;28;20064;-62
2023/05/30 06:31:31;;;;;;;15.38;14.45;;;;;;;;;;5039818;28;20028;-63
2023/05/30 06:33:57;;;;;;;14.35;13.55;;;;;;;;;;5030899;28;20497;-62
2023/05/30 06:36:22;;;;;;;14.55;13.68;;;;;;;;;;5032688;28;20025;-50
2023/05/30 06:38:48;;;;;;;14.65;13.80;;;;;;;;;;5039591;28;20037;-51
2023/05/30 06:41:13;;;;;;;14.90;14.00;;;;;;;;;;5031832;28;20037;-51
2023/05/30 06:43:39;;;;;;;16.13;14.77;;;;;;;;;;5035102;28;20099;-62
2023/05/30 06:46:05;;;;;;;15.50;14.50;;;;;;;;;;5039173;28;20041;-50
2023/05/30 06:48:31;;;;;;;14.93;13.93;;;;;;;;;;5035695;28;20495;-53
2023/05/30 06:50:56;;;;;;;15.23;14.13;;;;;;;;;;5039618;28;20110;-51
2023/05/30 06:53:22;;;;;;;14.07;13.27;;;;;;;;;;5036597;28;20029;-53
2023/05/30 06:55:47;;;;;;;13.40;12.60;;;;;;;;;;5037711;28;20053;-51
2023/05/30 06:58:13;;;;;;;17.15;16.15;;;;;;;;;;5037858;28;20079;-62
2023/05/30 07:00:38;;;;;;;14.75;13.85;;;;;;;;;;5038349;28;20064;-50
2023/05/30 07:03:04;;;;;;;13.15;12.32;;;;;;;;;;5039681;28;20067;-51
2023/05/30 07:05:29;;;;;;;13.55;12.75;;;;;;;;;;5041307;28;20049;-52
2023/05/30 07:07:55;;;;;;;13.25;12.35;;;;;;;;;;5038854;28;20099;-61
2023/05/30 07:10:20;;;;;;;15.25;14.25;;;;;;;;;;5034434;28;20052;-51
2023/05/30 07:12:46;;;;;;;14.60;13.75;;;;;;;;;;5040611;28;20036;-60
2023/05/30 07:15:12;;;;;;;13.90;13.07;;;;;;;;;;5036889;28;20128;-63
2023/05/30 07:17:38;;;;;;;15.13;14.23;;;;;;;;;;5034014;28;20116;-61
2023/05/30 07:20:05;;;;;;;18.00;16.63;;;;;;;;;;5036420;28;20151;-62
2023/05/30 07:22:30;;;;;;;21.33;20.17;;;;;;;;;;5038282;28;20061;-53
2023/05/30 07:24:56;;;;;;;21.33;18.42;;;;;;;;;;5034509;28;20482;-50
2023/05/30 07:27:21;;;;;;;19.35;18.05;;;;;;;;;;5037340;28;20048;-52
2023/05/30 07:29:47;;;;;;;19.08;18.08;;;;;;;;;;5036582;28;20117;-53
2023/05/30 07:32:12;;;;;;;19.98;18.58;;;;;;;;;;5037447;28;20048;-65
2023/05/30 07:34:38;;;;;;;20.13;19.00;;;;;;;;;;5039991;28;20039;-64
2023/05/30 07:37:04;;;;;;;17.65;16.60;;;;;;;;;;5035914;28;20028;-64
2023/05/30 07:39:30;;;;;;;19.63;18.38;;;;;;;;;;5038758;28;20115;-51
2023/05/30 07:41:55;;;;;;;19.65;18.55;;;;;;;;;;5037038;28;20041;-64
2023/05/30 07:44:21;;;;;;;18.52;17.45;;;;;;;;;;5035861;28;20103;-64
2023/05/30 07:46:47;;;;;;;16.85;15.82;;;;;;;;;;5036779;28;20049;-62
2023/05/30 07:49:13;;;;;;;17.92;16.92;;;;;;;;;;5035304;28;20043;-63
2023/05/30 07:51:38;;;;;;;18.80;17.75;;;;;;;;;;5037034;28;20048;-48
2023/05/30 07:54:04;;;;;;;15.30;14.38;;;;;;;;;;5039163;28;20029;-50
2023/05/30 07:56:29;;;;;;;13.90;13.07;;;;;;;;;;5035547;28;20091;-63
2023/05/30 07:58:54;;;;;;;13.10;12.35;;;;;;;;;;5036973;28;20104;-47
2023/05/30 08:01:20;;;;;;;14.18;13.38;;;;;;;;;;5035750;28;20537;-50
2023/05/30 08:03:45;;;;;;;18.15;15.70;;;;;;;;;;5034964;28;20067;-62
2023/05/30 08:06:11;;;;;;;15.45;14.57;;;;;;;;;;5036494;28;20025;-62
2023/05/30 08:08:36;;;;;;;16.77;15.85;;;;;;;;;;5037787;28;20037;-62
2023/05/30 08:11:02;;;;;;;24.17;22.90;;;;;;;;;;5034625;28;20324;-52
2023/05/30 08:13:27;;;;;;;14.23;13.35;;;;;;;;;;5035578;28;20029;-52
2023/05/30 08:15:52;;;;;;;26.20;24.67;;;;;;;;;;5037267;28;20087;-63
2023/05/30 08:18:18;;;;;;;28.55;26.95;;;;;;;;;;5034688;28;20083;-52
2023/05/30 08:20:44;;;;;;;28.02;26.42;;;;;;;;;;5034145;28;20048;-52
2023/05/30 08:23:09;;;;;;;16.75;15.65;;;;;;;;;;5036516;28;20044;-51
2023/05/30 08:25:36;;;;;;;14.18;13.27;;;;;;;;;;5033782;28;20455;-49
2023/05/30 08:28:02;;;;;;;15.80;14.80;;;;;;;;;;5034331;28;20060;-62
2023/05/30 08:30:28;;;;;;;22.60;21.30;;;;;;;;;;5038748;28;20365;-47
2023/05/30 08:32:54;;;;;;;42.83;40.53;;;;;;;;;;5036306;28;20037;-48
2023/05/30 08:35:19;;;;;;;38.83;36.78;;;;;;;;;;5032782;28;20418;-64
2023/05/30 08:37:45;;;;;;;38.88;36.78;;;;;;;;;;5033458;28;20030;-62
2023/05/30 08:40:12;;;;;;;47.47;45.03;;;;;;;;;;5035565;28;20514;-51
2023/05/30 08:42:39;;;;;;;33.40;31.65;;;;;;;;;;5036411;28;20482;-49
2023/05/30 08:45:05;;;;;;;49.75;47.22;;;;;;;;;;5033910;28;20443;-49
2023/05/30 08:47:31;;;;;;;59.55;56.50;;;;;;;;;;5033980;28;20077;-48
2023/05/30 08:50:01;;;;;;;56.17;53.30;;;;;;;;;;5034623;28;20045;-50
2023/05/30 08:52:28;;;;;;;52.67;50.00;;;;;;;;;;5035260;28;20069;-62
2023/05/30 08:55:05;;;;;;;47.17;44.75;;;;;;;;;;5034761;28;20037;-64
2023/05/30 08:57:37;;;;;;;51.45;48.85;;;;;;;;;;5033058;28;20067;-63
2023/05/30 09:00:05;;;;;;;47.88;45.28;;;;;;;;;;5034519;28;20332;-62
2023/05/30 09:02:33;;;;;;;54.95;52.13;;;;;;;;;;5035384;28;20049;-53
2023/05/30 09:04:59;;;;;;;50.67;48.05;;;;;;;;;;5033686;28;20665;-51
2023/05/30 09:07:27;;;;;;;54.03;51.30;;;;;;;;;;5034082;28;20041;-49
2023/05/30 09:09:53;;;;;;;50.83;48.25;;;;;;;;;;5033047;28;20410;-52
2023/05/30 09:12:19;;;;;;;59.00;56.05;;;;;;;;;;5035100;28;20036;-51
2023/05/30 09:14:44;;;;;;;48.13;45.70;;;;;;;;;;5034281;28;20472;-51
2023/05/30 09:17:09;;;;;;;51.67;49.05;;;;;;;;;;5031131;28;20041;-51
2023/05/30 09:19:37;;;;;;;50.40;47.72;;;;;;;;;;5032228;28;20175;-52
2023/05/30 09:22:02;;;;;;;52.05;49.22;;;;;;;;;;5032351;28;20029;-52
2023/05/30 09:24:54;;;;;;;54.35;51.40;;;;;;;;;;5034198;28;20033;-62
2023/05/30 09:27:20;;;;;;;50.97;47.72;;;;;;;;;;5033083;28;20052;-63
2023/05/30 09:29:45;;;;;;;53.58;50.63;;;;;;;;;;5033864;28;20033;-62
2023/05/30 09:32:11;;;;;;;59.50;56.30;;;;;;;;;;5035895;28;20095;-62
2023/05/30 09:34:36;;;;;;;62.65;59.40;;;;;;;;;;5034658;28;20059;-62
2023/05/30 09:37:04;;;;;;;63.88;60.70;;;;;;;;;;5033769;28;20040;-65
2023/05/30 09:39:29;;;;;;;67.03;63.53;;;;;;;;;;5034815;28;20049;-62
2023/05/30 09:41:56;;;;;;;60.17;57.15;;;;;;;;;;5031174;28;20033;-63
2023/05/30 09:44:22;;;;;;;63.58;60.40;;;;;;;;;;5031994;28;20455;-52
2023/05/30 09:46:54;;;;;;;62.50;59.25;;;;;;;;;;5033051;28;20041;-49
2023/05/30 09:49:19;;;;;;;55.08;52.28;;;;;;;;;;5036317;28;20081;-49
2023/05/30 09:51:45;;;;;;;58.40;55.47;;;;;;;;;;5032605;28;20068;-49
2023/05/30 09:54:12;;;;;;;55.53;52.70;;;;;;;;;;5032772;28;20119;-62
2023/05/30 09:56:39;;;;;;;56.67;53.85;;;;;;;;;;5033732;28;20044;-50
2023/05/30 09:59:07;;;;;;;67.60;64.22;;;;;;;;;;5032821;28;20124;-49
2023/05/30 10:01:36;;;;;;;69.55;65.63;;;;;;;;;;5033117;28;20386;-53
2023/05/30 10:04:09;;;;;;;68.03;64.65;;;;;;;;;;5033496;28;20052;-52
2023/05/30 10:06:38;;;;;;;64.30;61.10;;;;;;;;;;5033918;28;20064;-52
2023/05/30 10:09:06;;;;;;;66.88;63.50;;;;;;;;;;5033003;28;20043;-49
2023/05/30 10:11:32;;;;;;;63.13;59.95;;;;;;;;;;5035549;28;20095;-53
2023/05/30 10:13:58;;;;;;;67.82;64.43;;;;;;;;;;5033585;28;20029;-49
2023/05/30 10:16:27;;;;;;;69.82;66.38;;;;;;;;;;5033301;28;20040;-48
2023/05/30 10:18:56;;;;;;;65.75;62.40;;;;;;;;;;5033277;28;20040;-51
2023/05/30 10:21:22;;;;;;;69.90;66.43;;;;;;;;;;5035198;28;20055;-62
2023/05/30 10:23:48;;;;;;;72.63;69.03;;;;;;;;;;5033635;28;20123;-62
2023/05/30 10:26:16;;;;;;;62.00;58.85;;;;;;;;;;5033015;28;20037;-51
2023/05/30 10:28:45;;;;;;;52.38;49.67;;;;;;;;;;5034264;28;20029;-50
2023/05/30 10:31:12;;;;;;;36.60;34.70;;;;;;;;;;5035969;28;20028;-61
2023/05/30 10:33:41;;;;;;;37.47;35.58;;;;;;;;;;5035947;28;20147;-63
2023/05/30 10:36:06;;;;;;;32.17;30.40;;;;;;;;;;5034945;28;20028;-62
2023/05/30 10:38:38;;;;;;;21.52;20.33;;;;;;;;;;5034971;28;20037;-62
2023/05/30 10:41:14;;;;;;;20.33;19.13;;;;;;;;;;5032360;28;20849;-62
2023/05/30 10:43:51;;;;;;;26.58;25.08;;;;;;;;;;5032836;28;20040;-62
2023/05/30 10:46:32;;;;;;;38.45;36.47;;;;;;;;;;5034118;28;20041;-63
2023/05/30 10:49:21;;;;;;;31.35;29.67;;;;;;;;;;5029863;28;20037;-51
2023/05/30 10:52:03;;;;;;;18.10;17.10;;;;;;;;;;5040290;28;20068;-52
2023/05/30 10:54:36;;;;;;;19.25;18.20;;;;;;;;;;5032863;28;20279;-62
2023/05/30 10:57:14;;;;;;;30.85;29.25;;;;;;;;;;5029870;28;20129;-61
2023/05/30 10:59:39;;;;;;;21.33;20.13;;;;;;;;;;5033540;28;20046;-63
2023/05/30 11:02:06;;;;;;;19.75;18.65;;;;;;;;;;5030750;28;20033;-63
2023/05/30 11:04:42;;;;;;;21.83;20.63;;;;;;;;;;5035417;28;20021;-52
2023/05/30 11:07:09;;;;;;;16.88;15.98;;;;;;;;;;5033138;28;20036;-63
2023/05/30 11:09:40;;;;;;;17.38;16.40;;;;;;;;;;5033000;28;20059;-63
2023/05/30 11:12:06;;;;;;;16.75;15.82;;;;;;;;;;5036513;28;20155;-62
2023/05/30 11:14:33;;;;;;;17.70;16.58;;;;;;;;;;5036447;28;20037;-63
2023/05/30 11:17:04;;;;;;;18.73;17.48;;;;;;;;;;5033632;28;20072;-62
2023/05/30 11:19:40;;;;;;;19.77;18.67;;;;;;;;;;5031421;28;20047;-62
2023/05/30 11:22:10;;;;;;;21.08;19.95;;;;;;;;;;5030473;28;20045;-52
2023/05/30 11:24:35;;;;;;;23.70;22.30;;;;;;;;;;5033416;28;20029;-51
2023/05/30 11:27:06;;;;;;;22.48;21.08;;;;;;;;;;5029576;28;20047;-49
2023/05/30 11:29:49;;;;;;;21.15;19.95;;;;;;;;;;5037781;28;20040;-61
2023/05/30 11:32:23;;;;;;;20.20;19.10;;;;;;;;;;5037606;28;20061;-51
2023/05/30 11:34:58;;;;;;;28.25;26.65;;;;;;;;;;5037017;28;20032;-62
2023/05/30 11:37:25;;;;;;;29.73;28.10;;;;;;;;;;5036159;28;20486;-54
2023/05/30 11:39:54;;;;;;;31.73;30.10;;;;;;;;;;5038815;28;20069;-62
2023/05/30 11:42:20;;;;;;;26.73;25.33;;;;;;;;;;5035382;28;20041;-63
2023/05/30 11:44:45;;;;;;;23.45;22.20;;;;;;;;;;5035616;28;20033;-63
2023/05/30 11:47:14;;;;;;;22.30;21.10;;;;;;;;;;5034292;28;20033;-62
2023/05/30 11:49:39;;;;;;;25.48;24.15;;;;;;;;;;5038090;28;20103;-62
2023/05/30 11:52:06;;;;;;;40.50;38.38;;;;;;;;;;5036067;28;20032;-52
2023/05/30 11:54:32;;;;;;;26.73;25.20;;;;;;;;;;5037254;28;20033;-52
2023/05/30 11:56:58;;;;;;;32.90;31.15;;;;;;;;;;5037563;28;20541;-63
2023/05/30 11:59:25;;;;;;;21.77;20.60;;;;;;;;;;5040367;28;20235;-62
2023/05/30 12:01:56;;;;;;;22.35;21.15;;;;;;;;;;5040295;28;20091;-53
2023/05/30 12:04:26;;;;;;;30.60;29.00;;;;;;;;;;5042342;28;20164;-52
2023/05/30 12:06:52;;;;;;;;;;;;;;;;;;5036157;28;20029;-62
2023/05/30 12:09:18;;;;;;;32.67;30.92;;;;;;;;;;5034973;28;20588;-62
2023/05/30 12:12:00;;;;;;;35.78;33.92;;;;;;;;;;5035777;28;20114;-62
2023/05/30 12:14:30;;;;;;;26.25;24.85;;;;;;;;;;5040958;28;20032;-62
2023/05/30 12:16:56;;;;;;;31.63;29.98;;;;;;;;;;5036782;28;20037;-62
2023/05/30 12:19:30;;;;;;;36.22;34.33;;;;;;;;;;5039995;28;20051;-61
2023/05/30 12:21:56;;;;;;;63.70;60.53;;;;;;;;;;5035515;28;20467;-63
2023/05/30 12:24:23;;;;;;;59.95;56.95;;;;;;;;;;5036007;28;20037;-50
2023/05/30 12:26:49;;;;;;;61.53;58.42;;;;;;;;;;5036935;28;20044;-53
2023/05/30 12:29:15;;;;;;;52.55;49.88;;;;;;;;;;5035913;28;20029;-50
2023/05/30 12:31:40;;;;;;;56.13;53.30;;;;;;;;;;5038663;28;20044;-52
2023/05/30 12:34:06;;;;;;;61.22;58.08;;;;;;;;;;5035995;28;20138;-51
2023/05/30 12:36:31;;;;;;;63.30;60.15;;;;;;;;;;5036420;28;20037;-53
2023/05/30 12:39:00;;;;;;;65.40;61.95;;;;;;;;;;5034303;28;20029;-52
2023/05/30 12:41:30;;;;;;;66.18;62.67;;;;;;;;;;5043010;28;20133;-47
2023/05/30 12:43:56;;;;;;;62.80;59.67;;;;;;;;;;5035304;28;20037;-52
2023/05/30 12:46:22;;;;;;;62.60;59.45;;;;;;;;;;5032334;28;20037;-51
2023/05/30 12:48:47;;;;;;;68.25;64.75;;;;;;;;;;5035741;28;20037;-50
2023/05/30 12:51:13;;;;;;;71.22;67.68;;;;;;;;;;5034543;28;20043;-51
2023/05/30 12:53:38;;;;;;;69.05;65.53;;;;;;;;;;5035898;28;20033;-61
2023/05/30 12:56:03;;;;;;;74.00;70.30;;;;;;;;;;5033174;28;20044;-61
2023/05/30 12:58:29;;;;;;;60.88;57.83;;;;;;;;;;5033235;28;20041;-61
2023/05/30 13:00:55;;;;;;;69.82;66.35;;;;;;;;;;5034573;28;20041;-60
2023/05/30 13:03:20;;;;;;;61.58;58.47;;;;;;;;;;5043193;28;20029;-61
2023/05/30 13:05:47;;;;;;;75.35;71.55;;;;;;;;;;5036345;28;20046;-62
2023/05/30 13:08:13;;;;;;;74.80;71.05;;;;;;;;;;5034148;28;20037;-61
2023/05/30 13:10:38;;;;;;;66.70;63.38;;;;;;;;;;5032914;28;20106;-62
2023/05/30 13:13:04;;;;;;;77.55;73.70;;;;;;;;;;5034067;28;20049;-61
2023/05/30 13:15:29;;;;;;;75.60;71.82;;;;;;;;;;5036541;28;20029;-62
2023/05/30 13:17:55;;;;;;;62.33;59.22;;;;;;;;;;5035846;28;20098;-62
2023/05/30 13:20:20;;;;;;;66.57;62.42;;;;;;;;;;5035648;28;20040;-51
2023/05/30 13:22:46;;;;;;;70.78;67.10;;;;;;;;;;5034841;28;20037;-51
2023/05/30 13:25:11;;;;;;;63.58;60.40;;;;;;;;;;5035685;28;20050;-47
2023/05/30 13:27:37;;;;;;;60.85;57.75;;;;;;;;;;5033556;28;20029;-48
2023/05/30 13:30:03;;;;;;;65.90;62.60;;;;;;;;;;5032791;28;20044;-48
2023/05/30 13:32:28;;;;;;;73.20;69.57;;;;;;;;;;5034820;28;20083;-50
2023/05/30 13:34:53;;;;;;;71.38;67.85;;;;;;;;;;5035840;28;20036;-60
2023/05/30 13:37:19;;;;;;;102.95;97.70;;;;;;;;;;5031991;28;20037;-59
2023/05/30 13:39:45;;;;;;;63.17;60.00;;;;;;;;;;5035152;28;20029;-60
2023/05/30 13:42:10;;;;;;;57.55;54.65;;;;;;;;;;5031970;28;20478;-60
2023/05/30 13:44:36;;;;;;;50.45;47.90;;;;;;;;;;5036148;28;20057;-60
2023/05/30 13:47:01;;;;;;;47.50;45.00;;;;;;;;;;5033000;28;20041;-47
2023/05/30 13:49:32;;;;;;;31.98;30.25;;;;;;;;;;5035365;28;20036;-50
2023/05/30 13:52:00;;;;;;;45.33;43.05;;;;;;;;;;5035433;28;20590;-59
2023/05/30 13:54:25;;;;;;;48.65;46.17;;;;;;;;;;5035420;28;20033;-61
2023/05/30 13:56:51;;;;;;;57.65;54.78;;;;;;;;;;5033341;28;20021;-62
2023/05/30 13:59:16;;;;;;;72.53;68.53;;;;;;;;;;5034952;28;20037;-62
2023/05/30 14:01:41;;;;;;;65.15;61.83;;;;;;;;;;5040997;28;20025;-54
2023/05/30 14:04:07;;;;;;;46.53;44.17;;;;;;;;;;5034119;28;20394;-53
2023/05/30 14:06:32;;;;;;;47.67;45.17;;;;;;;;;;5034883;28;20367;-52
2023/05/30 14:08:58;;;;;;;53.92;50.85;;;;;;;;;;5033713;28;20040;-51
2023/05/30 14:11:23;;;;;;;77.68;73.85;;;;;;;;;;5037202;28;20132;-62
2023/05/30 14:13:49;;;;;;;72.47;68.88;;;;;;;;;;5036068;28;20044;-52
2023/05/30 14:16:15;;;;;;;66.53;63.22;;;;;;;;;;5032542;28;20048;-49
2023/05/30 14:18:45;;;;;;;62.17;59.08;;;;;;;;;;5034925;28;20036;-52
2023/05/30 14:21:11;;;;;;;;;;;;;;;;;;5033600;28;20036;-62